sensor_id;sensor_type;location;lat;lon;timestamp;P1;durP1;ratioP1;P2;durP2;ratioP2
35324;SDS011;35135;47.510;19.036;2023-03-09T00:01:58;3.55;;;1.85;;
35324;SDS011;35135;47.510;19.036;2023-03-09T00:04:25;4.68;;;1.95;;
35324;SDS011;35135;47.510;19.036;2023-03-09T00:06:51;4.93;;;2.08;;
35324;SDS011;35135;47.510;19.036;2023-03-09T00:09:16;3.72;;;1.90;;
35324;SDS011;35135;47.510;19.036;2023-03-09T00:11:43;4.03;;;2.15;;
35324;SDS011;35135;47.510;19.036;2023-03-09T00:14:10;3.42;;;2.00;;
35324;SDS011;35135;47.510;19.036;2023-03-09T00:16:37;4.22;;;2.03;;
35324;SDS011;35135;47.510;19.036;2023-03-09T00:19:03;6.70;;;1.90;;
35324;SDS011;35135;47.510;19.036;2023-03-09T00:21:29;3.30;;;2.10;;
35324;SDS011;35135;47.510;19.036;2023-03-09T00:24:07;4.68;;;2.00;;
35324;SDS011;35135;47.510;19.036;2023-03-09T00:26:38;3.28;;;1.70;;
35324;SDS011;35135;47.510;19.036;2023-03-09T00:29:06;3.78;;;1.95;;
35324;SDS011;35135;47.510;19.036;2023-03-09T00:31:33;3.63;;;1.90;;
35324;SDS011;35135;47.510;19.036;2023-03-09T00:33:58;4.28;;;1.80;;
35324;SDS011;35135;47.510;19.036;2023-03-09T00:36:24;3.25;;;1.90;;
35324;SDS011;35135;47.510;19.036;2023-03-09T00:38:51;3.42;;;1.70;;
35324;SDS011;35135;47.510;19.036;2023-03-09T00:41:17;2.75;;;1.70;;
35324;SDS011;35135;47.510;19.036;2023-03-09T00:43:44;3.85;;;1.80;;
35324;SDS011;35135;47.510;19.036;2023-03-09T00:46:10;2.63;;;1.50;;
35324;SDS011;35135;47.510;19.036;2023-03-09T00:48:37;4.70;;;1.88;;
35324;SDS011;35135;47.510;19.036;2023-03-09T00:51:03;2.85;;;1.40;;
35324;SDS011;35135;47.510;19.036;2023-03-09T00:53:29;2.78;;;1.73;;
35324;SDS011;35135;47.510;19.036;2023-03-09T00:55:54;2.78;;;1.73;;
35324;SDS011;35135;47.510;19.036;2023-03-09T00:58:20;2.25;;;1.75;;
35324;SDS011;35135;47.510;19.036;2023-03-09T01:00:46;2.28;;;1.50;;
35324;SDS011;35135;47.510;19.036;2023-03-09T01:03:11;3.38;;;1.70;;
35324;SDS011;35135;47.510;19.036;2023-03-09T01:05:37;2.95;;;1.60;;
35324;SDS011;35135;47.510;19.036;2023-03-09T01:08:03;2.83;;;1.77;;
35324;SDS011;35135;47.510;19.036;2023-03-09T01:10:29;2.63;;;1.60;;
35324;SDS011;35135;47.510;19.036;2023-03-09T01:12:54;2.72;;;1.52;;
35324;SDS011;35135;47.510;19.036;2023-03-09T01:15:20;2.15;;;1.63;;
35324;SDS011;35135;47.510;19.036;2023-03-09T01:17:46;2.67;;;1.70;;
35324;SDS011;35135;47.510;19.036;2023-03-09T01:20:15;2.03;;;1.50;;
35324;SDS011;35135;47.510;19.036;2023-03-09T01:22:41;2.55;;;1.60;;
35324;SDS011;35135;47.510;19.036;2023-03-09T01:25:07;3.42;;;1.58;;
35324;SDS011;35135;47.510;19.036;2023-03-09T01:27:33;2.17;;;1.50;;
35324;SDS011;35135;47.510;19.036;2023-03-09T01:29:58;2.20;;;1.50;;
35324;SDS011;35135;47.510;19.036;2023-03-09T01:32:24;2.35;;;1.40;;
35324;SDS011;35135;47.510;19.036;2023-03-09T01:34:51;2.80;;;1.60;;
35324;SDS011;35135;47.510;19.036;2023-03-09T01:37:17;1.98;;;1.40;;
35324;SDS011;35135;47.510;19.036;2023-03-09T01:39:43;3.85;;;1.70;;
35324;SDS011;35135;47.510;19.036;2023-03-09T01:42:09;2.33;;;1.45;;
35324;SDS011;35135;47.510;19.036;2023-03-09T01:44:35;2.90;;;1.50;;
35324;SDS011;35135;47.510;19.036;2023-03-09T01:47:01;2.47;;;1.50;;
35324;SDS011;35135;47.510;19.036;2023-03-09T01:49:30;1.95;;;1.50;;
35324;SDS011;35135;47.510;19.036;2023-03-09T01:52:09;2.17;;;1.58;;
35324;SDS011;35135;47.510;19.036;2023-03-09T01:54:44;4.00;;;1.63;;
35324;SDS011;35135;47.510;19.036;2023-03-09T01:57:15;2.22;;;1.70;;
35324;SDS011;35135;47.510;19.036;2023-03-09T01:59:50;1.77;;;1.33;;
35324;SDS011;35135;47.510;19.036;2023-03-09T02:02:18;2.05;;;1.30;;
35324;SDS011;35135;47.510;19.036;2023-03-09T02:04:53;2.03;;;1.50;;
35324;SDS011;35135;47.510;19.036;2023-03-09T02:07:23;2.25;;;1.40;;
35324;SDS011;35135;47.510;19.036;2023-03-09T02:09:52;2.63;;;1.70;;
35324;SDS011;35135;47.510;19.036;2023-03-09T02:12:23;2.70;;;1.65;;
35324;SDS011;35135;47.510;19.036;2023-03-09T02:14:50;1.90;;;1.30;;
35324;SDS011;35135;47.510;19.036;2023-03-09T02:17:17;2.58;;;1.52;;
35324;SDS011;35135;47.510;19.036;2023-03-09T02:19:48;2.17;;;1.60;;
35324;SDS011;35135;47.510;19.036;2023-03-09T02:27:31;2.75;;;1.50;;
35324;SDS011;35135;47.510;19.036;2023-03-09T02:29:59;1.90;;;1.30;;
35324;SDS011;35135;47.510;19.036;2023-03-09T02:32:25;1.98;;;1.20;;
35324;SDS011;35135;47.510;19.036;2023-03-09T02:34:50;2.00;;;1.27;;
35324;SDS011;35135;47.510;19.036;2023-03-09T02:37:23;1.83;;;1.30;;
35324;SDS011;35135;47.510;19.036;2023-03-09T02:39:50;1.65;;;1.30;;
35324;SDS011;35135;47.510;19.036;2023-03-09T02:42:20;2.22;;;1.55;;
35324;SDS011;35135;47.510;19.036;2023-03-09T02:44:46;1.83;;;1.30;;
35324;SDS011;35135;47.510;19.036;2023-03-09T02:47:15;2.35;;;1.25;;
35324;SDS011;35135;47.510;19.036;2023-03-09T02:49:46;2.08;;;1.35;;
35324;SDS011;35135;47.510;19.036;2023-03-09T02:52:12;1.75;;;1.02;;
35324;SDS011;35135;47.510;19.036;2023-03-09T02:54:38;1.20;;;1.10;;
35324;SDS011;35135;47.510;19.036;2023-03-09T02:57:03;2.63;;;1.17;;
35324;SDS011;35135;47.510;19.036;2023-03-09T02:59:30;1.60;;;1.17;;
35324;SDS011;35135;47.510;19.036;2023-03-09T03:01:55;2.63;;;1.40;;
35324;SDS011;35135;47.510;19.036;2023-03-09T03:04:21;1.40;;;1.00;;
35324;SDS011;35135;47.510;19.036;2023-03-09T03:06:47;2.30;;;1.20;;
35324;SDS011;35135;47.510;19.036;2023-03-09T03:09:13;2.88;;;1.55;;
35324;SDS011;35135;47.510;19.036;2023-03-09T03:11:38;1.75;;;1.30;;
35324;SDS011;35135;47.510;19.036;2023-03-09T03:14:04;1.85;;;0.98;;
35324;SDS011;35135;47.510;19.036;2023-03-09T03:16:30;2.45;;;1.17;;
35324;SDS011;35135;47.510;19.036;2023-03-09T03:18:59;1.33;;;1.05;;
35324;SDS011;35135;47.510;19.036;2023-03-09T03:21:25;1.63;;;1.00;;
35324;SDS011;35135;47.510;19.036;2023-03-09T03:23:50;1.52;;;1.25;;
35324;SDS011;35135;47.510;19.036;2023-03-09T03:26:16;2.03;;;1.38;;
35324;SDS011;35135;47.510;19.036;2023-03-09T03:28:42;1.92;;;1.30;;
35324;SDS011;35135;47.510;19.036;2023-03-09T03:31:09;1.08;;;0.90;;
35324;SDS011;35135;47.510;19.036;2023-03-09T03:33:35;1.98;;;1.20;;
35324;SDS011;35135;47.510;19.036;2023-03-09T03:36:01;1.70;;;1.15;;
35324;SDS011;35135;47.510;19.036;2023-03-09T03:38:27;1.88;;;1.23;;
35324;SDS011;35135;47.510;19.036;2023-03-09T03:40:52;1.88;;;1.17;;
35324;SDS011;35135;47.510;19.036;2023-03-09T03:43:18;1.73;;;1.17;;
35324;SDS011;35135;47.510;19.036;2023-03-09T03:45:44;1.75;;;1.02;;
35324;SDS011;35135;47.510;19.036;2023-03-09T03:48:09;1.55;;;1.40;;
35324;SDS011;35135;47.510;19.036;2023-03-09T03:50:35;1.27;;;1.10;;
35324;SDS011;35135;47.510;19.036;2023-03-09T03:53:01;1.85;;;1.10;;
35324;SDS011;35135;47.510;19.036;2023-03-09T03:55:27;1.25;;;0.90;;
35324;SDS011;35135;47.510;19.036;2023-03-09T03:57:53;2.00;;;1.15;;
35324;SDS011;35135;47.510;19.036;2023-03-09T04:00:18;1.50;;;0.90;;
35324;SDS011;35135;47.510;19.036;2023-03-09T04:02:44;1.67;;;1.23;;
35324;SDS011;35135;47.510;19.036;2023-03-09T04:05:10;1.83;;;1.15;;
35324;SDS011;35135;47.510;19.036;2023-03-09T04:07:36;1.50;;;1.15;;
35324;SDS011;35135;47.510;19.036;2023-03-09T04:10:02;1.60;;;1.27;;
35324;SDS011;35135;47.510;19.036;2023-03-09T04:12:28;1.30;;;1.05;;
35324;SDS011;35135;47.510;19.036;2023-03-09T04:14:54;1.20;;;0.88;;
35324;SDS011;35135;47.510;19.036;2023-03-09T04:17:20;1.33;;;1.02;;
35324;SDS011;35135;47.510;19.036;2023-03-09T04:19:46;1.67;;;1.08;;
35324;SDS011;35135;47.510;19.036;2023-03-09T04:22:11;1.77;;;1.60;;
35324;SDS011;35135;47.510;19.036;2023-03-09T04:24:37;1.40;;;1.00;;
35324;SDS011;35135;47.510;19.036;2023-03-09T04:27:03;1.35;;;1.20;;
35324;SDS011;35135;47.510;19.036;2023-03-09T04:29:28;1.10;;;1.00;;
35324;SDS011;35135;47.510;19.036;2023-03-09T04:31:54;2.60;;;0.80;;
35324;SDS011;35135;47.510;19.036;2023-03-09T04:34:20;2.10;;;1.40;;
35324;SDS011;35135;47.510;19.036;2023-03-09T04:36:45;1.67;;;1.30;;
35324;SDS011;35135;47.510;19.036;2023-03-09T04:39:11;1.35;;;0.90;;
35324;SDS011;35135;47.510;19.036;2023-03-09T04:41:37;1.00;;;0.90;;
35324;SDS011;35135;47.510;19.036;2023-03-09T04:44:02;1.13;;;1.02;;
35324;SDS011;35135;47.510;19.036;2023-03-09T04:46:28;1.25;;;0.80;;
35324;SDS011;35135;47.510;19.036;2023-03-09T04:48:54;1.15;;;0.90;;
35324;SDS011;35135;47.510;19.036;2023-03-09T04:51:20;2.15;;;1.35;;
35324;SDS011;35135;47.510;19.036;2023-03-09T04:53:46;1.73;;;1.10;;
35324;SDS011;35135;47.510;19.036;2023-03-09T04:56:11;1.75;;;1.30;;
35324;SDS011;35135;47.510;19.036;2023-03-09T04:58:37;1.75;;;1.20;;
35324;SDS011;35135;47.510;19.036;2023-03-09T05:01:02;1.83;;;1.15;;
35324;SDS011;35135;47.510;19.036;2023-03-09T05:03:28;1.83;;;1.08;;
35324;SDS011;35135;47.510;19.036;2023-03-09T05:05:54;1.90;;;1.20;;
35324;SDS011;35135;47.510;19.036;2023-03-09T05:08:20;1.83;;;1.30;;
35324;SDS011;35135;47.510;19.036;2023-03-09T05:10:46;1.42;;;1.10;;
35324;SDS011;35135;47.510;19.036;2023-03-09T05:13:12;1.50;;;1.10;;
35324;SDS011;35135;47.510;19.036;2023-03-09T05:15:38;1.52;;;1.08;;
35324;SDS011;35135;47.510;19.036;2023-03-09T05:18:04;2.13;;;1.20;;
35324;SDS011;35135;47.510;19.036;2023-03-09T05:20:30;2.45;;;1.40;;
35324;SDS011;35135;47.510;19.036;2023-03-09T05:22:57;2.35;;;1.17;;
35324;SDS011;35135;47.510;19.036;2023-03-09T05:25:22;1.88;;;1.00;;
35324;SDS011;35135;47.510;19.036;2023-03-09T05:27:48;1.60;;;1.15;;
35324;SDS011;35135;47.510;19.036;2023-03-09T05:30:14;1.95;;;1.30;;
35324;SDS011;35135;47.510;19.036;2023-03-09T05:32:41;1.52;;;1.33;;
35324;SDS011;35135;47.510;19.036;2023-03-09T05:35:07;1.92;;;1.40;;
35324;SDS011;35135;47.510;19.036;2023-03-09T05:37:33;2.75;;;1.30;;
35324;SDS011;35135;47.510;19.036;2023-03-09T05:39:59;1.95;;;1.10;;
35324;SDS011;35135;47.510;19.036;2023-03-09T05:42:24;1.50;;;1.10;;
35324;SDS011;35135;47.510;19.036;2023-03-09T05:44:50;1.52;;;1.20;;
35324;SDS011;35135;47.510;19.036;2023-03-09T05:47:16;1.63;;;1.17;;
35324;SDS011;35135;47.510;19.036;2023-03-09T05:49:42;1.20;;;1.10;;
35324;SDS011;35135;47.510;19.036;2023-03-09T05:52:08;2.13;;;1.45;;
35324;SDS011;35135;47.510;19.036;2023-03-09T05:54:33;1.70;;;1.35;;
35324;SDS011;35135;47.510;19.036;2023-03-09T05:56:59;2.65;;;1.20;;
35324;SDS011;35135;47.510;19.036;2023-03-09T05:59:25;1.90;;;1.30;;
35324;SDS011;35135;47.510;19.036;2023-03-09T06:01:51;1.52;;;1.08;;
35324;SDS011;35135;47.510;19.036;2023-03-09T06:04:16;1.90;;;1.27;;
35324;SDS011;35135;47.510;19.036;2023-03-09T06:06:42;1.70;;;1.10;;
35324;SDS011;35135;47.510;19.036;2023-03-09T06:09:08;1.80;;;1.40;;
35324;SDS011;35135;47.510;19.036;2023-03-09T06:11:34;1.67;;;1.40;;
35324;SDS011;35135;47.510;19.036;2023-03-09T06:13:59;2.03;;;1.35;;
35324;SDS011;35135;47.510;19.036;2023-03-09T06:16:25;1.90;;;0.98;;
35324;SDS011;35135;47.510;19.036;2023-03-09T06:18:54;2.53;;;1.40;;
35324;SDS011;35135;47.510;19.036;2023-03-09T06:21:21;2.35;;;1.00;;
35324;SDS011;35135;47.510;19.036;2023-03-09T06:23:48;2.38;;;1.40;;
35324;SDS011;35135;47.510;19.036;2023-03-09T06:26:14;2.67;;;1.10;;
35324;SDS011;35135;47.510;19.036;2023-03-09T06:28:40;2.42;;;1.42;;
35324;SDS011;35135;47.510;19.036;2023-03-09T06:31:10;3.15;;;1.38;;
35324;SDS011;35135;47.510;19.036;2023-03-09T06:33:38;2.72;;;1.42;;
35324;SDS011;35135;47.510;19.036;2023-03-09T06:36:06;2.08;;;1.23;;
35324;SDS011;35135;47.510;19.036;2023-03-09T06:38:33;3.58;;;1.50;;
35324;SDS011;35135;47.510;19.036;2023-03-09T06:40:58;2.80;;;1.58;;
35324;SDS011;35135;47.510;19.036;2023-03-09T06:43:24;5.93;;;3.30;;
35324;SDS011;35135;47.510;19.036;2023-03-09T06:45:50;4.88;;;3.25;;
35324;SDS011;35135;47.510;19.036;2023-03-09T06:48:16;5.03;;;2.42;;
35324;SDS011;35135;47.510;19.036;2023-03-09T06:50:42;3.58;;;2.28;;
35324;SDS011;35135;47.510;19.036;2023-03-09T06:53:09;4.28;;;2.30;;
35324;SDS011;35135;47.510;19.036;2023-03-09T06:55:35;3.63;;;1.80;;
35324;SDS011;35135;47.510;19.036;2023-03-09T06:58:02;6.97;;;2.17;;
35324;SDS011;35135;47.510;19.036;2023-03-09T07:00:28;2.17;;;1.88;;
35324;SDS011;35135;47.510;19.036;2023-03-09T07:02:54;7.97;;;2.17;;
35324;SDS011;35135;47.510;19.036;2023-03-09T07:05:19;6.57;;;2.30;;
35324;SDS011;35135;47.510;19.036;2023-03-09T07:07:45;2.33;;;1.70;;
35324;SDS011;35135;47.510;19.036;2023-03-09T07:10:13;4.35;;;1.50;;
35324;SDS011;35135;47.510;19.036;2023-03-09T07:12:39;5.82;;;1.85;;
35324;SDS011;35135;47.510;19.036;2023-03-09T07:15:04;5.22;;;2.08;;
35324;SDS011;35135;47.510;19.036;2023-03-09T07:17:31;3.58;;;2.03;;
35324;SDS011;35135;47.510;19.036;2023-03-09T07:19:57;3.85;;;1.55;;
35324;SDS011;35135;47.510;19.036;2023-03-09T07:22:23;4.45;;;1.77;;
35324;SDS011;35135;47.510;19.036;2023-03-09T07:24:49;5.90;;;1.77;;
35324;SDS011;35135;47.510;19.036;2023-03-09T07:27:15;4.30;;;1.60;;
35324;SDS011;35135;47.510;19.036;2023-03-09T07:29:40;9.45;;;2.03;;
35324;SDS011;35135;47.510;19.036;2023-03-09T07:32:06;4.07;;;1.60;;
35324;SDS011;35135;47.510;19.036;2023-03-09T07:34:33;3.33;;;1.60;;
35324;SDS011;35135;47.510;19.036;2023-03-09T07:37:00;4.68;;;1.63;;
35324;SDS011;35135;47.510;19.036;2023-03-09T07:39:26;4.18;;;1.85;;
35324;SDS011;35135;47.510;19.036;2023-03-09T07:41:51;6.35;;;2.00;;
35324;SDS011;35135;47.510;19.036;2023-03-09T07:44:17;5.82;;;1.85;;
35324;SDS011;35135;47.510;19.036;2023-03-09T07:46:43;6.40;;;2.45;;
35324;SDS011;35135;47.510;19.036;2023-03-09T07:49:09;5.63;;;1.95;;
35324;SDS011;35135;47.510;19.036;2023-03-09T07:51:34;6.63;;;1.50;;
35324;SDS011;35135;47.510;19.036;2023-03-09T07:54:03;8.98;;;1.73;;
35324;SDS011;35135;47.510;19.036;2023-03-09T07:56:30;5.97;;;1.77;;
35324;SDS011;35135;47.510;19.036;2023-03-09T07:58:56;6.40;;;2.13;;
35324;SDS011;35135;47.510;19.036;2023-03-09T08:01:22;7.00;;;1.88;;
35324;SDS011;35135;47.510;19.036;2023-03-09T08:03:48;3.50;;;1.70;;
35324;SDS011;35135;47.510;19.036;2023-03-09T08:06:14;5.90;;;1.92;;
35324;SDS011;35135;47.510;19.036;2023-03-09T08:08:40;5.50;;;1.83;;
35324;SDS011;35135;47.510;19.036;2023-03-09T08:11:06;2.75;;;1.63;;
35324;SDS011;35135;47.510;19.036;2023-03-09T08:13:32;4.28;;;1.67;;
35324;SDS011;35135;47.510;19.036;2023-03-09T08:16:00;6.75;;;1.88;;
35324;SDS011;35135;47.510;19.036;2023-03-09T08:18:28;2.92;;;1.40;;
35324;SDS011;35135;47.510;19.036;2023-03-09T08:20:54;5.25;;;1.92;;
35324;SDS011;35135;47.510;19.036;2023-03-09T08:23:20;4.35;;;1.73;;
35324;SDS011;35135;47.510;19.036;2023-03-09T08:25:51;4.63;;;1.60;;
35324;SDS011;35135;47.510;19.036;2023-03-09T08:28:18;4.13;;;1.60;;
35324;SDS011;35135;47.510;19.036;2023-03-09T08:30:45;4.15;;;2.00;;
35324;SDS011;35135;47.510;19.036;2023-03-09T08:33:10;4.40;;;1.50;;
35324;SDS011;35135;47.510;19.036;2023-03-09T08:35:36;3.83;;;1.75;;
35324;SDS011;35135;47.510;19.036;2023-03-09T08:38:02;2.97;;;1.70;;
35324;SDS011;35135;47.510;19.036;2023-03-09T08:40:28;4.53;;;1.83;;
35324;SDS011;35135;47.510;19.036;2023-03-09T08:42:53;3.85;;;1.65;;
35324;SDS011;35135;47.510;19.036;2023-03-09T08:45:19;5.00;;;1.80;;
35324;SDS011;35135;47.510;19.036;2023-03-09T08:47:45;5.20;;;1.65;;
35324;SDS011;35135;47.510;19.036;2023-03-09T08:50:11;2.97;;;1.83;;
35324;SDS011;35135;47.510;19.036;2023-03-09T08:52:37;3.63;;;1.75;;
35324;SDS011;35135;47.510;19.036;2023-03-09T08:55:05;2.95;;;1.45;;
35324;SDS011;35135;47.510;19.036;2023-03-09T08:57:31;2.28;;;1.50;;
35324;SDS011;35135;47.510;19.036;2023-03-09T08:59:57;3.15;;;1.50;;
35324;SDS011;35135;47.510;19.036;2023-03-09T09:02:24;4.40;;;1.80;;
35324;SDS011;35135;47.510;19.036;2023-03-09T09:04:49;4.07;;;1.40;;
35324;SDS011;35135;47.510;19.036;2023-03-09T09:07:15;2.75;;;1.50;;
35324;SDS011;35135;47.510;19.036;2023-03-09T09:09:41;3.53;;;1.50;;
35324;SDS011;35135;47.510;19.036;2023-03-09T09:12:11;3.17;;;1.50;;
35324;SDS011;35135;47.510;19.036;2023-03-09T09:14:37;2.72;;;1.40;;
35324;SDS011;35135;47.510;19.036;2023-03-09T09:17:03;3.00;;;1.35;;
35324;SDS011;35135;47.510;19.036;2023-03-09T09:19:32;5.07;;;1.50;;
35324;SDS011;35135;47.510;19.036;2023-03-09T09:21:58;3.75;;;1.35;;
35324;SDS011;35135;47.510;19.036;2023-03-09T09:24:25;3.45;;;1.40;;
35324;SDS011;35135;47.510;19.036;2023-03-09T09:26:54;2.63;;;1.30;;
35324;SDS011;35135;47.510;19.036;2023-03-09T09:29:20;2.95;;;1.33;;
35324;SDS011;35135;47.510;19.036;2023-03-09T09:31:49;4.22;;;1.52;;
35324;SDS011;35135;47.510;19.036;2023-03-09T09:34:15;2.38;;;1.40;;
35324;SDS011;35135;47.510;19.036;2023-03-09T09:36:43;5.03;;;1.42;;
35324;SDS011;35135;47.510;19.036;2023-03-09T09:39:13;2.85;;;1.48;;
35324;SDS011;35135;47.510;19.036;2023-03-09T09:41:43;2.47;;;1.23;;
35324;SDS011;35135;47.510;19.036;2023-03-09T09:44:17;2.45;;;1.10;;
35324;SDS011;35135;47.510;19.036;2023-03-09T09:46:47;3.13;;;1.67;;
35324;SDS011;35135;47.510;19.036;2023-03-09T09:49:19;3.17;;;1.30;;
35324;SDS011;35135;47.510;19.036;2023-03-09T09:57:22;2.72;;;1.45;;
35324;SDS011;35135;47.510;19.036;2023-03-09T10:02:56;3.30;;;1.17;;
35324;SDS011;35135;47.510;19.036;2023-03-09T10:08:46;2.95;;;1.30;;
35324;SDS011;35135;47.510;19.036;2023-03-09T10:11:25;1.63;;;1.08;;
35324;SDS011;35135;47.510;19.036;2023-03-09T10:14:06;2.38;;;1.25;;
35324;SDS011;35135;47.510;19.036;2023-03-09T10:17:06;1.83;;;1.23;;
35324;SDS011;35135;47.510;19.036;2023-03-09T10:19:38;4.53;;;1.30;;
35324;SDS011;35135;47.510;19.036;2023-03-09T10:27:20;2.38;;;1.38;;
35324;SDS011;35135;47.510;19.036;2023-03-09T10:30:31;1.85;;;1.20;;
35324;SDS011;35135;47.510;19.036;2023-03-09T10:33:14;2.40;;;1.10;;
35324;SDS011;35135;47.510;19.036;2023-03-09T10:35:49;3.45;;;1.40;;
35324;SDS011;35135;47.510;19.036;2023-03-09T10:38:26;1.52;;;1.10;;
35324;SDS011;35135;47.510;19.036;2023-03-09T10:40:53;2.05;;;1.40;;
35324;SDS011;35135;47.510;19.036;2023-03-09T10:43:24;1.45;;;0.85;;
35324;SDS011;35135;47.510;19.036;2023-03-09T10:48:48;1.88;;;1.10;;
35324;SDS011;35135;47.510;19.036;2023-03-09T10:51:22;1.98;;;1.20;;
35324;SDS011;35135;47.510;19.036;2023-03-09T10:53:55;1.63;;;0.90;;
35324;SDS011;35135;47.510;19.036;2023-03-09T11:01:42;3.28;;;1.25;;
35324;SDS011;35135;47.510;19.036;2023-03-09T11:06:57;2.42;;;1.23;;
35324;SDS011;35135;47.510;19.036;2023-03-09T11:09:35;1.85;;;1.30;;
35324;SDS011;35135;47.510;19.036;2023-03-09T11:12:15;1.90;;;1.00;;
35324;SDS011;35135;47.510;19.036;2023-03-09T11:22:41;1.73;;;1.30;;
35324;SDS011;35135;47.510;19.036;2023-03-09T11:25:17;2.33;;;1.42;;
35324;SDS011;35135;47.510;19.036;2023-03-09T11:28:00;3.72;;;1.52;;
35324;SDS011;35135;47.510;19.036;2023-03-09T11:30:30;2.58;;;1.55;;
35324;SDS011;35135;47.510;19.036;2023-03-09T11:32:56;1.52;;;1.33;;
35324;SDS011;35135;47.510;19.036;2023-03-09T11:35:22;1.90;;;1.20;;
35324;SDS011;35135;47.510;19.036;2023-03-09T11:37:58;1.83;;;1.30;;
35324;SDS011;35135;47.510;19.036;2023-03-09T11:40:29;2.17;;;1.38;;
35324;SDS011;35135;47.510;19.036;2023-03-09T11:43:05;1.98;;;1.20;;
35324;SDS011;35135;47.510;19.036;2023-03-09T11:45:38;2.97;;;1.38;;
35324;SDS011;35135;47.510;19.036;2023-03-09T11:53:29;2.30;;;1.40;;
35324;SDS011;35135;47.510;19.036;2023-03-09T11:56:22;2.88;;;1.70;;
35324;SDS011;35135;47.510;19.036;2023-03-09T12:01:52;2.95;;;1.45;;
35324;SDS011;35135;47.510;19.036;2023-03-09T12:04:23;1.60;;;1.30;;
35324;SDS011;35135;47.510;19.036;2023-03-09T12:09:26;2.10;;;1.52;;
35324;SDS011;35135;47.510;19.036;2023-03-09T12:14:42;2.20;;;1.40;;
35324;SDS011;35135;47.510;19.036;2023-03-09T12:17:19;2.22;;;1.20;;
35324;SDS011;35135;47.510;19.036;2023-03-09T12:19:49;2.13;;;1.30;;
35324;SDS011;35135;47.510;19.036;2023-03-09T12:22:18;2.08;;;1.35;;
35324;SDS011;35135;47.510;19.036;2023-03-09T12:24:56;1.65;;;1.10;;
35324;SDS011;35135;47.510;19.036;2023-03-09T12:27:28;2.22;;;1.23;;
35324;SDS011;35135;47.510;19.036;2023-03-09T12:30:09;2.83;;;1.15;;
35324;SDS011;35135;47.510;19.036;2023-03-09T12:32:44;1.85;;;1.30;;
35324;SDS011;35135;47.510;19.036;2023-03-09T12:42:45;1.75;;;1.10;;
35324;SDS011;35135;47.510;19.036;2023-03-09T12:53:18;2.17;;;1.33;;
35324;SDS011;35135;47.510;19.036;2023-03-09T12:55:53;2.20;;;1.15;;
35324;SDS011;35135;47.510;19.036;2023-03-09T13:03:32;2.15;;;1.33;;
35324;SDS011;35135;47.510;19.036;2023-03-09T13:06:04;1.15;;;0.95;;
35324;SDS011;35135;47.510;19.036;2023-03-09T13:08:49;1.85;;;1.00;;
35324;SDS011;35135;47.510;19.036;2023-03-09T13:13:51;2.97;;;1.50;;
35324;SDS011;35135;47.510;19.036;2023-03-09T13:16:35;1.88;;;1.33;;
35324;SDS011;35135;47.510;19.036;2023-03-09T13:24:17;16.55;;;6.95;;
35324;SDS011;35135;47.510;19.036;2023-03-09T13:26:53;16.80;;;7.95;;
35324;SDS011;35135;47.510;19.036;2023-03-09T13:29:23;17.88;;;8.20;;
35324;SDS011;35135;47.510;19.036;2023-03-09T13:31:51;16.15;;;8.60;;
35324;SDS011;35135;47.510;19.036;2023-03-09T13:34:27;14.48;;;8.40;;
35324;SDS011;35135;47.510;19.036;2023-03-09T13:36:59;17.60;;;7.93;;
35324;SDS011;35135;47.510;19.036;2023-03-09T13:39:30;16.58;;;8.73;;
35324;SDS011;35135;47.510;19.036;2023-03-09T13:41:58;15.13;;;7.40;;
35324;SDS011;35135;47.510;19.036;2023-03-09T13:44:28;14.57;;;8.20;;
35324;SDS011;35135;47.510;19.036;2023-03-09T13:46:56;14.43;;;7.15;;
35324;SDS011;35135;47.510;19.036;2023-03-09T13:49:28;16.33;;;7.63;;
35324;SDS011;35135;47.510;19.036;2023-03-09T13:52:06;14.90;;;7.20;;
35324;SDS011;35135;47.510;19.036;2023-03-09T13:57:23;17.27;;;8.20;;
35324;SDS011;35135;47.510;19.036;2023-03-09T14:00:23;14.77;;;7.55;;
35324;SDS011;35135;47.510;19.036;2023-03-09T14:02:54;17.17;;;8.02;;
35324;SDS011;35135;47.510;19.036;2023-03-09T14:05:21;16.48;;;6.85;;
35324;SDS011;35135;47.510;19.036;2023-03-09T14:07:51;15.35;;;7.85;;
35324;SDS011;35135;47.510;19.036;2023-03-09T14:10:23;16.40;;;7.65;;
35324;SDS011;35135;47.510;19.036;2023-03-09T14:12:56;14.65;;;6.93;;
35324;SDS011;35135;47.510;19.036;2023-03-09T14:15:25;16.88;;;7.05;;
35324;SDS011;35135;47.510;19.036;2023-03-09T14:17:51;15.93;;;7.40;;
35324;SDS011;35135;47.510;19.036;2023-03-09T14:20:22;11.38;;;6.32;;
35324;SDS011;35135;47.510;19.036;2023-03-09T14:22:49;14.77;;;6.95;;
35324;SDS011;35135;47.510;19.036;2023-03-09T14:27:50;10.85;;;5.68;;
35324;SDS011;35135;47.510;19.036;2023-03-09T14:32:58;13.05;;;6.15;;
35324;SDS011;35135;47.510;19.036;2023-03-09T14:35:31;11.43;;;5.75;;
35324;SDS011;35135;47.510;19.036;2023-03-09T14:38:02;12.30;;;6.22;;
35324;SDS011;35135;47.510;19.036;2023-03-09T14:40:47;10.30;;;5.43;;
35324;SDS011;35135;47.510;19.036;2023-03-09T14:46:06;11.13;;;4.97;;
35324;SDS011;35135;47.510;19.036;2023-03-09T14:48:33;8.52;;;5.32;;
35324;SDS011;35135;47.510;19.036;2023-03-09T14:50:59;10.95;;;5.93;;
35324;SDS011;35135;47.510;19.036;2023-03-09T14:53:24;9.18;;;4.80;;
35324;SDS011;35135;47.510;19.036;2023-03-09T14:55:50;8.18;;;4.55;;
35324;SDS011;35135;47.510;19.036;2023-03-09T14:58:16;10.13;;;5.10;;
35324;SDS011;35135;47.510;19.036;2023-03-09T15:00:42;10.85;;;5.03;;
35324;SDS011;35135;47.510;19.036;2023-03-09T15:03:08;10.80;;;4.72;;
35324;SDS011;35135;47.510;19.036;2023-03-09T15:05:35;10.70;;;5.10;;
35324;SDS011;35135;47.510;19.036;2023-03-09T15:08:00;7.57;;;4.38;;
35324;SDS011;35135;47.510;19.036;2023-03-09T15:10:26;11.32;;;4.80;;
35324;SDS011;35135;47.510;19.036;2023-03-09T15:12:53;9.05;;;4.60;;
35324;SDS011;35135;47.510;19.036;2023-03-09T15:15:20;9.80;;;4.93;;
35324;SDS011;35135;47.510;19.036;2023-03-09T15:17:48;9.05;;;4.70;;
35324;SDS011;35135;47.510;19.036;2023-03-09T15:20:15;11.88;;;4.90;;
35324;SDS011;35135;47.510;19.036;2023-03-09T15:22:43;7.68;;;3.80;;
35324;SDS011;35135;47.510;19.036;2023-03-09T15:25:10;10.07;;;4.80;;
35324;SDS011;35135;47.510;19.036;2023-03-09T15:27:37;9.32;;;4.50;;
35324;SDS011;35135;47.510;19.036;2023-03-09T15:30:03;10.00;;;4.18;;
35324;SDS011;35135;47.510;19.036;2023-03-09T15:32:30;8.60;;;4.32;;
35324;SDS011;35135;47.510;19.036;2023-03-09T15:34:55;8.63;;;3.85;;
35324;SDS011;35135;47.510;19.036;2023-03-09T15:37:21;7.72;;;4.25;;
35324;SDS011;35135;47.510;19.036;2023-03-09T15:39:47;10.15;;;4.00;;
35324;SDS011;35135;47.510;19.036;2023-03-09T15:42:12;6.53;;;3.80;;
35324;SDS011;35135;47.510;19.036;2023-03-09T15:44:38;9.40;;;4.13;;
35324;SDS011;35135;47.510;19.036;2023-03-09T15:47:04;6.45;;;3.95;;
35324;SDS011;35135;47.510;19.036;2023-03-09T15:49:29;7.55;;;3.95;;
35324;SDS011;35135;47.510;19.036;2023-03-09T15:51:55;8.05;;;3.63;;
35324;SDS011;35135;47.510;19.036;2023-03-09T15:54:21;6.22;;;3.25;;
35324;SDS011;35135;47.510;19.036;2023-03-09T15:56:46;7.35;;;3.78;;
35324;SDS011;35135;47.510;19.036;2023-03-09T15:59:12;6.22;;;3.33;;
35324;SDS011;35135;47.510;19.036;2023-03-09T16:01:38;5.80;;;3.22;;
35324;SDS011;35135;47.510;19.036;2023-03-09T16:04:04;6.00;;;3.33;;
35324;SDS011;35135;47.510;19.036;2023-03-09T16:06:30;9.43;;;3.08;;
35324;SDS011;35135;47.510;19.036;2023-03-09T16:08:56;7.15;;;3.35;;
35324;SDS011;35135;47.510;19.036;2023-03-09T16:11:22;10.95;;;3.17;;
35324;SDS011;35135;47.510;19.036;2023-03-09T16:13:48;7.22;;;3.05;;